sensor_id;sensor_type;location;lat;lon;timestamp;temperature;humidity
22950;DHT22;11641;51.018;4.474;2023-04-01T00:00:55;10.50;99.90
22950;DHT22;11641;51.018;4.474;2023-04-01T00:03:22;10.50;99.90
22950;DHT22;11641;51.018;4.474;2023-04-01T00:05:48;10.50;99.90
22950;DHT22;11641;51.018;4.474;2023-04-01T00:08:15;10.50;99.90
22950;DHT22;11641;51.018;4.474;2023-04-01T00:10:41;10.50;99.90
22950;DHT22;11641;51.018;4.474;2023-04-01T00:13:09;10.50;99.90
22950;DHT22;11641;51.018;4.474;2023-04-01T00:15:36;10.60;99.90
22950;DHT22;11641;51.018;4.474;2023-04-01T00:18:02;10.50;99.90
22950;DHT22;11641;51.018;4.474;2023-04-01T00:20:29;10.50;99.90
22950;DHT22;11641;51.018;4.474;2023-04-01T00:22:54;10.50;99.90
22950;DHT22;11641;51.018;4.474;2023-04-01T00:25:23;10.40;99.90
22950;DHT22;11641;51.018;4.474;2023-04-01T00:27:49;10.40;99.90
22950;DHT22;11641;51.018;4.474;2023-04-01T00:30:15;10.40;99.90
22950;DHT22;11641;51.018;4.474;2023-04-01T00:32:41;10.40;99.90
22950;DHT22;11641;51.018;4.474;2023-04-01T00:35:10;10.50;99.90
22950;DHT22;11641;51.018;4.474;2023-04-01T00:37:37;10.40;99.90
22950;DHT22;11641;51.018;4.474;2023-04-01T00:40:04;10.50;99.90
22950;DHT22;11641;51.018;4.474;2023-04-01T00:42:31;10.50;99.90
22950;DHT22;11641;51.018;4.474;2023-04-01T00:44:56;10.60;99.90
22950;DHT22;11641;51.018;4.474;2023-04-01T00:47:27;10.50;99.90
22950;DHT22;11641;51.018;4.474;2023-04-01T00:49:55;10.60;99.90
22950;DHT22;11641;51.018;4.474;2023-04-01T00:52:23;10.60;99.90
22950;DHT22;11641;51.018;4.474;2023-04-01T00:54:56;10.50;99.90
22950;DHT22;11641;51.018;4.474;2023-04-01T00:57:37;10.50;99.90
22950;DHT22;11641;51.018;4.474;2023-04-01T01:00:09;10.50;99.90
22950;DHT22;11641;51.018;4.474;2023-04-01T01:02:36;10.50;99.90
22950;DHT22;11641;51.018;4.474;2023-04-01T01:05:02;10.60;99.90
22950;DHT22;11641;51.018;4.474;2023-04-01T01:08:13;10.60;99.90
22950;DHT22;11641;51.018;4.474;2023-04-01T01:10:43;10.60;99.90
22950;DHT22;11641;51.018;4.474;2023-04-01T01:13:17;10.50;99.90
22950;DHT22;11641;51.018;4.474;2023-04-01T01:15:49;10.60;99.90
22950;DHT22;11641;51.018;4.474;2023-04-01T01:37:10;10.50;99.90
22950;DHT22;11641;51.018;4.474;2023-04-01T01:39:37;10.40;99.90
22950;DHT22;11641;51.018;4.474;2023-04-01T01:42:06;10.50;99.90
22950;DHT22;11641;51.018;4.474;2023-04-01T01:44:35;10.50;99.90
22950;DHT22;11641;51.018;4.474;2023-04-01T01:47:03;10.60;99.90
22950;DHT22;11641;51.018;4.474;2023-04-01T01:49:32;10.60;99.90
22950;DHT22;11641;51.018;4.474;2023-04-01T01:51:59;10.50;99.90
22950;DHT22;11641;51.018;4.474;2023-04-01T01:54:25;10.50;99.90
22950;DHT22;11641;51.018;4.474;2023-04-01T01:56:59;10.60;99.90
22950;DHT22;11641;51.018;4.474;2023-04-01T01:59:29;10.60;99.90
22950;DHT22;11641;51.018;4.474;2023-04-01T02:01:56;10.60;99.90
22950;DHT22;11641;51.018;4.474;2023-04-01T02:04:25;10.40;99.90
22950;DHT22;11641;51.018;4.474;2023-04-01T02:07:19;10.40;99.90
22950;DHT22;11641;51.018;4.474;2023-04-01T02:09:48;10.50;99.90
22950;DHT22;11641;51.018;4.474;2023-04-01T02:12:15;10.50;99.90
22950;DHT22;11641;51.018;4.474;2023-04-01T02:15:06;10.40;99.90
22950;DHT22;11641;51.018;4.474;2023-04-01T02:17:34;10.40;99.90
22950;DHT22;11641;51.018;4.474;2023-04-01T02:20:07;10.40;99.90
22950;DHT22;11641;51.018;4.474;2023-04-01T02:22:38;10.40;99.90
22950;DHT22;11641;51.018;4.474;2023-04-01T02:25:11;10.30;99.90
22950;DHT22;11641;51.018;4.474;2023-04-01T02:27:39;10.40;99.90
22950;DHT22;11641;51.018;4.474;2023-04-01T02:30:06;10.30;99.90
22950;DHT22;11641;51.018;4.474;2023-04-01T02:32:36;10.20;99.90
22950;DHT22;11641;51.018;4.474;2023-04-01T02:35:12;10.30;99.90
22950;DHT22;11641;51.018;4.474;2023-04-01T02:37:39;10.20;99.90
22950;DHT22;11641;51.018;4.474;2023-04-01T02:40:11;10.10;99.90
22950;DHT22;11641;51.018;4.474;2023-04-01T02:42:37;10.30;99.90
22950;DHT22;11641;51.018;4.474;2023-04-01T02:45:04;10.20;99.90
22950;DHT22;11641;51.018;4.474;2023-04-01T02:47:32;10.30;99.90
22950;DHT22;11641;51.018;4.474;2023-04-01T02:49:58;10.30;99.90
22950;DHT22;11641;51.018;4.474;2023-04-01T02:52:27;10.20;99.90
22950;DHT22;11641;51.018;4.474;2023-04-01T02:54:54;10.30;99.90
22950;DHT22;11641;51.018;4.474;2023-04-01T02:57:19;10.20;99.90
22950;DHT22;11641;51.018;4.474;2023-04-01T02:59:45;10.20;99.90
22950;DHT22;11641;51.018;4.474;2023-04-01T03:02:11;10.30;99.90
22950;DHT22;11641;51.018;4.474;2023-04-01T03:04:37;10.20;99.90
22950;DHT22;11641;51.018;4.474;2023-04-01T03:07:02;10.20;99.90
22950;DHT22;11641;51.018;4.474;2023-04-01T03:09:28;10.10;99.90
22950;DHT22;11641;51.018;4.474;2023-04-01T03:11:54;10.10;99.90
22950;DHT22;11641;51.018;4.474;2023-04-01T03:14:20;10.10;99.90
22950;DHT22;11641;51.018;4.474;2023-04-01T03:16:46;10.20;99.90
22950;DHT22;11641;51.018;4.474;2023-04-01T03:19:12;10.20;99.90
22950;DHT22;11641;51.018;4.474;2023-04-01T03:21:37;10.20;99.90
22950;DHT22;11641;51.018;4.474;2023-04-01T03:24:03;10.10;99.90
22950;DHT22;11641;51.018;4.474;2023-04-01T03:26:29;10.10;99.90
22950;DHT22;11641;51.018;4.474;2023-04-01T03:28:55;10.10;99.90
22950;DHT22;11641;51.018;4.474;2023-04-01T03:31:21;10.10;99.90
22950;DHT22;11641;51.018;4.474;2023-04-01T03:33:47;10.10;99.90
22950;DHT22;11641;51.018;4.474;2023-04-01T03:36:13;10.10;99.90
22950;DHT22;11641;51.018;4.474;2023-04-01T03:38:40;10.00;99.90
22950;DHT22;11641;51.018;4.474;2023-04-01T03:41:11;10.00;99.90
22950;DHT22;11641;51.018;4.474;2023-04-01T03:43:37;10.10;99.90
22950;DHT22;11641;51.018;4.474;2023-04-01T03:46:06;10.00;99.90
22950;DHT22;11641;51.018;4.474;2023-04-01T03:48:31;10.00;99.90
22950;DHT22;11641;51.018;4.474;2023-04-01T03:50:57;10.00;99.90
22950;DHT22;11641;51.018;4.474;2023-04-01T03:53:25;10.00;99.90
22950;DHT22;11641;51.018;4.474;2023-04-01T03:55:52;10.10;99.90
22950;DHT22;11641;51.018;4.474;2023-04-01T03:58:20;10.10;99.90
22950;DHT22;11641;51.018;4.474;2023-04-01T04:00:49;10.20;99.90
22950;DHT22;11641;51.018;4.474;2023-04-01T04:03:14;10.10;99.90
22950;DHT22;11641;51.018;4.474;2023-04-01T04:05:48;10.10;99.90
22950;DHT22;11641;51.018;4.474;2023-04-01T04:08:16;10.00;99.90
22950;DHT22;11641;51.018;4.474;2023-04-01T04:10:43;10.10;99.90
22950;DHT22;11641;51.018;4.474;2023-04-01T04:13:09;10.20;99.90
22950;DHT22;11641;51.018;4.474;2023-04-01T04:15:35;10.30;99.90
22950;DHT22;11641;51.018;4.474;2023-04-01T04:18:00;10.20;99.90
22950;DHT22;11641;51.018;4.474;2023-04-01T04:20:26;10.10;99.90
22950;DHT22;11641;51.018;4.474;2023-04-01T04:22:52;10.10;99.90
22950;DHT22;11641;51.018;4.474;2023-04-01T04:25:18;10.10;99.90
22950;DHT22;11641;51.018;4.474;2023-04-01T04:27:46;10.20;99.90
22950;DHT22;11641;51.018;4.474;2023-04-01T04:30:12;10.20;99.90
22950;DHT22;11641;51.018;4.474;2023-04-01T04:32:37;10.10;99.90
22950;DHT22;11641;51.018;4.474;2023-04-01T04:35:10;10.20;99.90
22950;DHT22;11641;51.018;4.474;2023-04-01T04:37:35;10.20;99.90
22950;DHT22;11641;51.018;4.474;2023-04-01T04:40:01;10.10;99.90
22950;DHT22;11641;51.018;4.474;2023-04-01T04:42:27;10.10;99.90
22950;DHT22;11641;51.018;4.474;2023-04-01T04:44:53;10.10;99.90
22950;DHT22;11641;51.018;4.474;2023-04-01T04:47:18;10.10;99.90
22950;DHT22;11641;51.018;4.474;2023-04-01T04:49:44;10.00;99.90
22950;DHT22;11641;51.018;4.474;2023-04-01T04:52:09;10.00;99.90
22950;DHT22;11641;51.018;4.474;2023-04-01T04:54:35;10.00;99.90
22950;DHT22;11641;51.018;4.474;2023-04-01T04:57:04;10.00;99.90
22950;DHT22;11641;51.018;4.474;2023-04-01T04:59:30;10.00;99.90
22950;DHT22;11641;51.018;4.474;2023-04-01T05:01:56;10.00;99.90
22950;DHT22;11641;51.018;4.474;2023-04-01T05:04:21;10.00;99.90
22950;DHT22;11641;51.018;4.474;2023-04-01T05:06:49;10.10;99.90
22950;DHT22;11641;51.018;4.474;2023-04-01T05:09:17;10.20;99.90
22950;DHT22;11641;51.018;4.474;2023-04-01T05:11:44;10.10;99.90
22950;DHT22;11641;51.018;4.474;2023-04-01T05:14:18;10.00;99.90
22950;DHT22;11641;51.018;4.474;2023-04-01T05:16:44;10.00;99.90
22950;DHT22;11641;51.018;4.474;2023-04-01T05:19:10;10.00;99.90
22950;DHT22;11641;51.018;4.474;2023-04-01T05:21:37;9.90;99.90
22950;DHT22;11641;51.018;4.474;2023-04-01T05:24:03;10.00;99.90
22950;DHT22;11641;51.018;4.474;2023-04-01T05:26:32;9.90;99.90
22950;DHT22;11641;51.018;4.474;2023-04-01T05:28:58;9.90;99.90
22950;DHT22;11641;51.018;4.474;2023-04-01T05:31:23;9.90;99.90
22950;DHT22;11641;51.018;4.474;2023-04-01T05:33:49;10.00;99.90
22950;DHT22;11641;51.018;4.474;2023-04-01T05:36:16;10.00;99.90
22950;DHT22;11641;51.018;4.474;2023-04-01T05:38:42;10.00;99.90
22950;DHT22;11641;51.018;4.474;2023-04-01T05:41:09;9.80;99.90
22950;DHT22;11641;51.018;4.474;2023-04-01T05:43:38;9.80;99.90
22950;DHT22;11641;51.018;4.474;2023-04-01T05:46:04;9.90;99.90
22950;DHT22;11641;51.018;4.474;2023-04-01T05:48:32;9.90;99.90
22950;DHT22;11641;51.018;4.474;2023-04-01T05:50:58;10.00;99.90
22950;DHT22;11641;51.018;4.474;2023-04-01T05:53:24;10.00;99.90
22950;DHT22;11641;51.018;4.474;2023-04-01T05:55:49;10.00;99.90
22950;DHT22;11641;51.018;4.474;2023-04-01T05:58:15;9.90;99.90
22950;DHT22;11641;51.018;4.474;2023-04-01T06:00:40;10.00;99.90
22950;DHT22;11641;51.018;4.474;2023-04-01T06:03:11;9.90;99.90
22950;DHT22;11641;51.018;4.474;2023-04-01T06:05:41;9.90;99.90
22950;DHT22;11641;51.018;4.474;2023-04-01T06:08:15;9.90;99.90
22950;DHT22;11641;51.018;4.474;2023-04-01T06:30:43;10.10;99.90
22950;DHT22;11641;51.018;4.474;2023-04-01T06:33:30;10.00;99.90
22950;DHT22;11641;51.018;4.474;2023-04-01T06:46:58;10.00;99.90
22950;DHT22;11641;51.018;4.474;2023-04-01T06:52:18;9.90;99.90
22950;DHT22;11641;51.018;4.474;2023-04-01T06:54:53;9.90;99.90
22950;DHT22;11641;51.018;4.474;2023-04-01T07:00:02;10.10;99.90
22950;DHT22;11641;51.018;4.474;2023-04-01T07:02:33;10.10;99.90
22950;DHT22;11641;51.018;4.474;2023-04-01T07:05:02;10.10;99.90
22950;DHT22;11641;51.018;4.474;2023-04-01T07:07:55;10.00;99.90
22950;DHT22;11641;51.018;4.474;2023-04-01T07:10:36;10.00;99.90
22950;DHT22;11641;51.018;4.474;2023-04-01T07:13:15;9.90;99.90
22950;DHT22;11641;51.018;4.474;2023-04-01T07:15:54;9.90;99.90
22950;DHT22;11641;51.018;4.474;2023-04-01T07:18:30;10.00;99.90
22950;DHT22;11641;51.018;4.474;2023-04-01T07:20:58;10.00;99.90
22950;DHT22;11641;51.018;4.474;2023-04-01T07:23:39;10.10;99.90
22950;DHT22;11641;51.018;4.474;2023-04-01T07:26:23;9.90;99.90
22950;DHT22;11641;51.018;4.474;2023-04-01T07:28:53;9.90;99.90
22950;DHT22;11641;51.018;4.474;2023-04-01T07:36:59;10.10;99.90
22950;DHT22;11641;51.018;4.474;2023-04-01T07:42:46;10.00;99.90
22950;DHT22;11641;51.018;4.474;2023-04-01T07:50:26;10.10;99.90
22950;DHT22;11641;51.018;4.474;2023-04-01T08:06:32;10.40;99.90
22950;DHT22;11641;51.018;4.474;2023-04-01T08:12:23;10.40;99.90
22950;DHT22;11641;51.018;4.474;2023-04-01T08:20:56;10.40;99.90
22950;DHT22;11641;51.018;4.474;2023-04-01T08:23:28;10.50;99.90
22950;DHT22;11641;51.018;4.474;2023-04-01T08:26:06;10.30;99.90
22950;DHT22;11641;51.018;4.474;2023-04-01T08:31:31;10.40;99.90
22950;DHT22;11641;51.018;4.474;2023-04-01T08:33:57;10.50;99.90
22950;DHT22;11641;51.018;4.474;2023-04-01T08:36:29;10.80;99.90
22950;DHT22;11641;51.018;4.474;2023-04-01T08:39:18;10.70;99.90
22950;DHT22;11641;51.018;4.474;2023-04-01T09:00:54;10.80;99.90
22950;DHT22;11641;51.018;4.474;2023-04-01T09:06:28;11.00;99.90
22950;DHT22;11641;51.018;4.474;2023-04-01T09:26:03;10.80;99.90
22950;DHT22;11641;51.018;4.474;2023-04-01T09:36:43;11.00;99.90
22950;DHT22;11641;51.018;4.474;2023-04-01T09:44:37;11.30;99.90
22950;DHT22;11641;51.018;4.474;2023-04-01T09:47:33;11.50;99.90
22950;DHT22;11641;51.018;4.474;2023-04-01T09:55:30;11.40;99.90
22950;DHT22;11641;51.018;4.474;2023-04-01T10:09:59;10.90;99.90
22950;DHT22;11641;51.018;4.474;2023-04-01T10:12:55;11.00;99.90
22950;DHT22;11641;51.018;4.474;2023-04-01T10:26:49;11.40;99.90
22950;DHT22;11641;51.018;4.474;2023-04-01T10:32:27;11.20;99.90
22950;DHT22;11641;51.018;4.474;2023-04-01T10:52:03;11.40;99.90
22950;DHT22;11641;51.018;4.474;2023-04-01T10:55:04;12.00;99.90
22950;DHT22;11641;51.018;4.474;2023-04-01T11:09:43;11.90;99.90
22950;DHT22;11641;51.018;4.474;2023-04-01T11:20:45;11.90;99.90
22950;DHT22;11641;51.018;4.474;2023-04-01T11:26:27;11.80;99.90
22950;DHT22;11641;51.018;4.474;2023-04-01T11:31:39;12.00;99.90
22950;DHT22;11641;51.018;4.474;2023-04-01T11:43:39;12.70;99.90
22950;DHT22;11641;51.018;4.474;2023-04-01T11:46:12;12.60;99.90
22950;DHT22;11641;51.018;4.474;2023-04-01T11:57:51;12.60;99.90
22950;DHT22;11641;51.018;4.474;2023-04-01T12:11:38;11.80;99.90
22950;DHT22;11641;51.018;4.474;2023-04-01T12:22:51;11.50;99.90
22950;DHT22;11641;51.018;4.474;2023-04-01T12:28:30;11.40;99.90
22950;DHT22;11641;51.018;4.474;2023-04-01T12:36:37;11.70;99.90
22950;DHT22;11641;51.018;4.474;2023-04-01T13:06:27;12.00;99.90
22950;DHT22;11641;51.018;4.474;2023-04-01T13:17:07;12.10;99.90
22950;DHT22;11641;51.018;4.474;2023-04-01T13:26:18;11.80;99.90
22950;DHT22;11641;51.018;4.474;2023-04-01T13:34:44;11.70;99.90
22950;DHT22;11641;51.018;4.474;2023-04-01T13:37:52;11.90;99.90
22950;DHT22;11641;51.018;4.474;2023-04-01T14:12:04;11.90;99.90
22950;DHT22;11641;51.018;4.474;2023-04-01T14:22:42;12.10;99.90
22950;DHT22;11641;51.018;4.474;2023-04-01T14:25:22;12.40;99.90
22950;DHT22;11641;51.018;4.474;2023-04-01T14:34:00;13.10;99.90
22950;DHT22;11641;51.018;4.474;2023-04-01T14:54:06;12.40;99.90
22950;DHT22;11641;51.018;4.474;2023-04-01T14:56:50;12.30;99.90
22950;DHT22;11641;51.018;4.474;2023-04-01T15:04:43;12.00;99.90
22950;DHT22;11641;51.018;4.474;2023-04-01T15:13:25;11.80;99.90
22950;DHT22;11641;51.018;4.474;2023-04-01T15:16:23;11.80;99.90
22950;DHT22;11641;51.018;4.474;2023-04-01T15:22:06;11.70;99.90
22950;DHT22;11641;51.018;4.474;2023-04-01T15:24:47;11.40;99.90
22950;DHT22;11641;51.018;4.474;2023-04-01T15:47:01;11.20;99.90
22950;DHT22;11641;51.018;4.474;2023-04-01T15:49:38;11.30;99.90
22950;DHT22;11641;51.018;4.474;2023-04-01T16:09:01;11.70;99.90
22950;DHT22;11641;51.018;4.474;2023-04-01T16:25:33;11.20;99.90
22950;DHT22;11641;51.018;4.474;2023-04-01T16:28:24;11.10;99.90
22950;DHT22;11641;51.018;4.474;2023-04-01T16:31:25;10.90;99.90
22950;DHT22;11641;51.018;4.474;2023-04-01T16:33:58;10.80;99.90
22950;DHT22;11641;51.018;4.474;2023-04-01T16:36:45;10.70;99.90
22950;DHT22;11641;51.018;4.474;2023-04-01T16:39:30;10.80;99.90
22950;DHT22;11641;51.018;4.474;2023-04-01T16:47:17;10.90;99.90
22950;DHT22;11641;51.018;4.474;2023-04-01T16:49:51;10.80;99.90
22950;DHT22;11641;51.018;4.474;2023-04-01T16:52:34;10.80;99.90
22950;DHT22;11641;51.018;4.474;2023-04-01T16:55:12;10.60;99.90
22950;DHT22;11641;51.018;4.474;2023-04-01T17:00:28;10.30;99.90
22950;DHT22;11641;51.018;4.474;2023-04-01T17:03:02;10.40;99.90
22950;DHT22;11641;51.018;4.474;2023-04-01T17:05:38;10.30;99.90
22950;DHT22;11641;51.018;4.474;2023-04-01T17:18:56;10.40;99.90
22950;DHT22;11641;51.018;4.474;2023-04-01T17:24:31;10.40;99.90
22950;DHT22;11641;51.018;4.474;2023-04-01T17:32:50;10.30;99.90
22950;DHT22;11641;51.018;4.474;2023-04-01T17:35:38;10.30;99.90
22950;DHT22;11641;51.018;4.474;2023-04-01T17:41:24;10.30;99.90
22950;DHT22;11641;51.018;4.474;2023-04-01T17:57:39;10.50;99.90
22950;DHT22;11641;51.018;4.474;2023-04-01T18:00:33;10.30;99.90
22950;DHT22;11641;51.018;4.474;2023-04-01T18:05:47;10.40;99.90
22950;DHT22;11641;51.018;4.474;2023-04-01T18:08:23;10.30;99.90
22950;DHT22;11641;51.018;4.474;2023-04-01T18:11:00;10.30;99.90
22950;DHT22;11641;51.018;4.474;2023-04-01T18:16:21;10.30;99.90
22950;DHT22;11641;51.018;4.474;2023-04-01T18:24:02;10.10;99.90
22950;DHT22;11641;51.018;4.474;2023-04-01T18:26:32;10.00;99.90
22950;DHT22;11641;51.018;4.474;2023-04-01T18:32:00;10.00;99.90
22950;DHT22;11641;51.018;4.474;2023-04-01T18:37:42;9.80;99.90
22950;DHT22;11641;51.018;4.474;2023-04-01T18:53:58;9.80;99.90
22950;DHT22;11641;51.018;4.474;2023-04-01T18:56:32;9.80;99.90
22950;DHT22;11641;51.018;4.474;2023-04-01T19:06:59;10.00;99.90
22950;DHT22;11641;51.018;4.474;2023-04-01T19:09:46;9.90;99.90
22950;DHT22;11641;51.018;4.474;2023-04-01T19:12:27;9.70;99.90
22950;DHT22;11641;51.018;4.474;2023-04-01T19:17:58;9.80;99.90
22950;DHT22;11641;51.018;4.474;2023-04-01T19:23:12;9.80;99.90
22950;DHT22;11641;51.018;4.474;2023-04-01T19:25:58;9.80;99.90
22950;DHT22;11641;51.018;4.474;2023-04-01T19:31:33;9.80;99.90
22950;DHT22;11641;51.018;4.474;2023-04-01T19:53:00;9.80;99.90
22950;DHT22;11641;51.018;4.474;2023-04-01T19:55:42;9.70;99.90
22950;DHT22;11641;51.018;4.474;2023-04-01T19:58:47;9.70;99.90
22950;DHT22;11641;51.018;4.474;2023-04-01T20:01:20;9.70;99.90
22950;DHT22;11641;51.018;4.474;2023-04-01T20:03:54;9.70;99.90
22950;DHT22;11641;51.018;4.474;2023-04-01T20:12:16;9.70;99.90
22950;DHT22;11641;51.018;4.474;2023-04-01T20:14:53;9.60;99.90
22950;DHT22;11641;51.018;4.474;2023-04-01T20:17:44;9.60;99.90
22950;DHT22;11641;51.018;4.474;2023-04-01T20:25:38;9.80;99.90
22950;DHT22;11641;51.018;4.474;2023-04-01T20:28:19;9.90;99.90
22950;DHT22;11641;51.018;4.474;2023-04-01T20:31:09;10.00;99.90
22950;DHT22;11641;51.018;4.474;2023-04-01T20:39:41;9.80;99.90
22950;DHT22;11641;51.018;4.474;2023-04-01T20:53:12;9.80;99.90
22950;DHT22;11641;51.018;4.474;2023-04-01T21:01:34;10.00;99.90
22950;DHT22;11641;51.018;4.474;2023-04-01T21:15:07;10.30;99.90
22950;DHT22;11641;51.018;4.474;2023-04-01T21:18:04;10.40;99.90
22950;DHT22;11641;51.018;4.474;2023-04-01T21:26:43;10.50;99.90
22950;DHT22;11641;51.018;4.474;2023-04-01T21:29:24;10.60;99.90
22950;DHT22;11641;51.018;4.474;2023-04-01T21:43:12;10.60;99.90
22950;DHT22;11641;51.018;4.474;2023-04-01T21:53:49;10.70;99.90
22950;DHT22;11641;51.018;4.474;2023-04-01T22:05:51;10.50;99.90
22950;DHT22;11641;51.018;4.474;2023-04-01T22:13:33;10.70;99.90
22950;DHT22;11641;51.018;4.474;2023-04-01T22:24:51;10.60;99.90
22950;DHT22;11641;51.018;4.474;2023-04-01T22:30:23;10.70;99.90
22950;DHT22;11641;51.018;4.474;2023-04-01T22:32:52;10.70;99.90
22950;DHT22;11641;51.018;4.474;2023-04-01T22:38:09;10.80;99.90
22950;DHT22;11641;51.018;4.474;2023-04-01T22:40:51;10.80;99.90
22950;DHT22;11641;51.018;4.474;2023-04-01T22:43:38;10.80;99.90
22950;DHT22;11641;51.018;4.474;2023-04-01T22:46:42;10.70;99.90
22950;DHT22;11641;51.018;4.474;2023-04-01T22:49:30;10.70;99.90
22950;DHT22;11641;51.018;4.474;2023-04-01T22:52:36;10.80;99.90
22950;DHT22;11641;51.018;4.474;2023-04-01T22:55:03;10.70;99.90
22950;DHT22;11641;51.018;4.474;2023-04-01T23:00:20;10.60;99.90
22950;DHT22;11641;51.018;4.474;2023-04-01T23:05:41;10.70;99.90
22950;DHT22;11641;51.018;4.474;2023-04-01T23:10:53;10.50;99.90
22950;DHT22;11641;51.018;4.474;2023-04-01T23:13:29;10.60;99.90
22950;DHT22;11641;51.018;4.474;2023-04-01T23:15:57;10.50;99.90
22950;DHT22;11641;51.018;4.474;2023-04-01T23:21:40;10.60;99.90
22950;DHT22;11641;51.018;4.474;2023-04-01T23:26:53;10.50;99.90
22950;DHT22;11641;51.018;4.474;2023-04-01T23:29:21;10.50;99.90
22950;DHT22;11641;51.018;4.474;2023-04-01T23:31:55;10.30;99.90
22950;DHT22;11641;51.018;4.474;2023-04-01T23:34:24;10.30;99.90
22950;DHT22;11641;51.018;4.474;2023-04-01T23:36:53;10.20;99.90
22950;DHT22;11641;51.018;4.474;2023-04-01T23:41:49;10.10;99.90
22950;DHT22;11641;51.018;4.474;2023-04-01T23:44:16;10.10;99.90
22950;DHT22;11641;51.018;4.474;2023-04-01T23:46:46;10.20;99.90
22950;DHT22;11641;51.018;4.474;2023-04-01T23:49:23;10.10;99.90
22950;DHT22;11641;51.018;4.474;2023-04-01T23:51:58;10.20;99.90
22950;DHT22;11641;51.018;4.474;2023-04-01T23:54:34;10.10;99.90
22950;DHT22;11641;51.018;4.474;2023-04-01T23:57:10;10.10;99.90
22950;DHT22;11641;51.018;4.474;2023-04-01T23:59:37;10.20;99.90
